Terminal Aerodrome Forecast
Issued by NWS Boston, MA

Home | Current Version | Previous Version | Text Only | Print | Product List | Glossary On
Versions: 1 2 3 4 5 6 7 8 9 10 11 12 13 14 15 16 17 18 19 20 21 22 23 24 25 26 27 28 29 30 31 32 33 34 35 36 37 38 39 40 41 42 43 44 45 46 47
000
FTUS41 KBOX 020528
TAFBDL
TAF
KBDL 020528Z 0206/0312 02007KT 6SM -SHRA BR OVC012
     FM021300 02007KT 3SM -SHRA BR OVC010
     FM021700 02006KT P6SM OVC010
     FM022300 03005KT P6SM BKN025
     FM030200 03004KT P6SM BKN035
     FM031100 02005KT P6SM SCT250=

USA.gov is the U.S. government's official web portal to all federal, state and local government web resources and services.